Time;durP1;ratioP1;P1;durP2;ratioP2;P2;SDS_P1;SDS_P2;PMS_P1;PMS_P2;Temp;Humidity;BMP_temperature;BMP_pressure;BME280_temperature;BME280_humidity;BME280_pressure;Samples;Min_cycle;Max_cycle;Signal;HPM_P1;HPM_P2
2024/03/05 00:02:17;;;;;;;3.47;1.33;;;;;;;5.47;100.00;98616.50;5056238;28;20455;-74
2024/03/05 00:04:43;;;;;;;2.38;1.30;;;;;;;5.43;100.00;98613.41;5057390;28;20024;-74
2024/03/05 00:07:09;;;;;;;7.15;1.27;;;;;;;5.40;100.00;98610.28;5056387;28;20074;-74
2024/03/05 00:09:36;;;;;;;5.32;1.50;;;;;;;5.39;100.00;98617.47;5056619;28;20033;-74
2024/03/05 00:12:02;;;;;;;7.18;1.98;;;;;;;5.40;100.00;98599.63;5056114;28;20051;-74
2024/03/05 00:14:28;;;;;;;6.10;1.38;;;;;;;5.38;100.00;98586.50;5023535;28;20025;-74
2024/03/05 00:16:56;;;;;;;5.00;1.17;;;;;;;5.41;100.00;98595.97;5056357;28;20036;-74
2024/03/05 00:19:21;;;;;;;3.78;1.35;;;;;;;5.39;100.00;98593.47;5039945;28;20493;-74
2024/03/05 00:21:47;;;;;;;5.35;1.60;;;;;;;5.43;100.00;98589.41;5039703;28;20037;-74
2024/03/05 00:24:13;;;;;;;4.13;1.10;;;;;;;5.44;100.00;98582.25;5039695;28;20028;-74
2024/03/05 00:26:38;;;;;;;5.82;1.35;;;;;;;5.40;100.00;98589.81;5039362;28;20371;-74
2024/03/05 00:29:04;;;;;;;2.70;1.02;;;;;;;5.39;100.00;98582.81;5039582;28;20040;-74
2024/03/05 00:31:31;;;;;;;2.35;1.25;;;;;;;5.40;100.00;98580.97;5056886;28;20044;-74
2024/03/05 00:33:57;;;;;;;6.75;1.23;;;;;;;5.37;100.00;98571.56;5055884;28;20024;-74
2024/03/05 00:36:25;;;;;;;4.35;1.10;;;;;;;5.36;100.00;98579.72;5039147;28;20076;-74
2024/03/05 00:38:51;;;;;;;2.88;1.00;;;;;;;5.30;100.00;98573.34;5039779;28;20059;-74
2024/03/05 00:41:18;;;;;;;5.10;1.13;;;;;;;5.20;100.00;98575.53;5055631;28;20344;-74
2024/03/05 00:43:44;;;;;;;5.32;1.00;;;;;;;5.07;100.00;98570.94;5039295;28;20119;-74
2024/03/05 00:46:10;;;;;;;5.30;1.00;;;;;;;4.97;100.00;98570.44;5056278;28;20354;-74
2024/03/05 00:48:36;;;;;;;3.42;0.80;;;;;;;4.92;100.00;98556.88;5072216;28;20017;-74
2024/03/05 00:51:02;;;;;;;4.20;1.42;;;;;;;4.89;100.00;98557.28;5039391;28;20033;-74
2024/03/05 00:53:28;;;;;;;4.45;0.90;;;;;;;4.90;100.00;98564.25;5039689;28;20443;-74
2024/03/05 00:55:53;;;;;;;4.03;0.88;;;;;;;4.88;100.00;98563.63;5039319;28;20030;-74
2024/03/05 00:58:20;;;;;;;8.32;0.93;;;;;;;4.90;100.00;98554.44;5039311;28;20382;-74
2024/03/05 01:00:47;;;;;;;4.38;0.80;;;;;;;4.91;100.00;98565.91;5072436;28;20024;-74
2024/03/05 01:03:12;;;;;;;1.98;0.70;;;;;;;4.85;100.00;98560.31;5039263;28;20348;-74
2024/03/05 01:05:38;;;;;;;1.27;0.60;;;;;;;4.77;100.00;98555.16;5072557;28;20054;-74
2024/03/05 01:08:04;;;;;;;1.45;0.80;;;;;;;4.68;100.00;98571.44;5042700;28;20355;-74
2024/03/05 01:10:29;;;;;;;3.22;0.80;;;;;;;4.56;100.00;98563.16;5043297;28;20029;-75
2024/03/05 01:12:56;;;;;;;0.55;0.50;;;;;;;4.52;100.00;98588.50;5043251;28;20046;-74
2024/03/05 01:15:22;;;;;;;1.42;0.60;;;;;;;4.48;100.00;98573.94;5059958;28;20059;-74
2024/03/05 01:17:48;;;;;;;0.50;0.50;;;;;;;4.42;100.00;98567.53;5059802;28;20032;-74
2024/03/05 01:20:18;;;;;;;0.50;0.50;;;;;;;4.36;100.00;98589.56;5042949;28;20043;-75
2024/03/05 01:22:44;;;;;;;0.50;0.50;;;;;;;4.28;100.00;98579.84;5044468;28;20050;-74
2024/03/05 01:25:10;;;;;;;1.65;0.73;;;;;;;4.28;100.00;98606.47;5059490;28;20039;-74
2024/03/05 01:27:38;;;;;;;0.50;0.50;;;;;;;4.23;100.00;98600.06;5059654;28;20028;-74
2024/03/05 01:30:11;;;;;;;0.60;0.60;;;;;;;4.12;100.00;98567.63;5059781;28;20028;-74
2024/03/05 01:32:38;;;;;;;0.50;0.50;;;;;;;4.05;100.00;98601.31;5060689;28;20350;-75
2024/03/05 01:35:09;;;;;;;0.50;0.50;;;;;;;4.00;100.00;98608.19;5042624;28;20040;-75
2024/03/05 01:37:38;;;;;;;0.50;0.50;;;;;;;3.94;100.00;98605.28;5059665;28;20032;-75
2024/03/05 01:40:05;;;;;;;0.40;0.40;;;;;;;3.90;100.00;98585.38;5060047;28;20362;-75
2024/03/05 01:42:31;;;;;;;0.50;0.50;;;;;;;3.93;100.00;98600.94;5042944;28;20041;-75
2024/03/05 01:44:59;;;;;;;0.40;0.40;;;;;;;3.94;100.00;98612.41;5059086;28;20024;-75
2024/03/05 01:47:26;;;;;;;0.50;0.50;;;;;;;3.95;100.00;98616.72;5075728;28;20489;-75
2024/03/05 01:49:54;;;;;;;0.40;0.40;;;;;;;3.93;100.00;98600.94;5043358;28;20392;-75
2024/03/05 01:52:22;;;;;;;0.43;0.43;;;;;;;3.95;100.00;98601.59;5043142;28;20024;-74
2024/03/05 01:54:49;;;;;;;0.40;0.40;;;;;;;3.89;100.00;98598.84;5075450;28;20028;-75
2024/03/05 01:57:15;;;;;;;0.40;0.40;;;;;;;3.95;100.00;98620.22;5042143;28;20115;-75
2024/03/05 01:59:41;;;;;;;0.40;0.40;;;;;;;3.88;100.00;98598.03;5042473;28;20108;-75
2024/03/05 02:02:07;;;;;;;0.93;0.93;;;;;;;3.96;100.00;98600.56;5042563;28;20078;-75
2024/03/05 02:04:35;;;;;;;0.50;0.50;;;;;;;3.99;100.00;98609.19;5042023;28;20037;-75
2024/03/05 02:07:05;;;;;;;0.50;0.50;;;;;;;4.01;100.00;98597.38;5042083;28;20029;-75
2024/03/05 02:09:31;;;;;;;0.50;0.50;;;;;;;4.03;100.00;98599.84;5059317;28;20378;-74
2024/03/05 02:11:56;;;;;;;0.50;0.50;;;;;;;4.07;100.00;98607.25;5042131;28;20028;-75
2024/03/05 02:14:24;;;;;;;0.40;0.40;;;;;;;4.09;100.00;98621.19;5042066;28;20024;-75
2024/03/05 02:16:50;;;;;;;0.50;0.50;;;;;;;4.12;100.00;98607.50;5041910;28;20495;-75
2024/03/05 02:19:16;;;;;;;0.40;0.40;;;;;;;4.14;100.00;98637.41;5058129;28;20033;-75
2024/03/05 02:21:44;;;;;;;0.50;0.50;;;;;;;4.18;100.00;98608.59;5075009;28;20038;-74
2024/03/05 02:24:10;;;;;;;0.40;0.40;;;;;;;4.21;100.00;98628.69;5074746;28;20032;-75
2024/03/05 02:26:37;;;;;;;0.50;0.50;;;;;;;4.21;100.00;98613.56;5041871;28;20040;-75
2024/03/05 02:29:03;;;;;;;0.50;0.50;;;;;;;4.28;100.00;98665.00;5025323;28;20036;-75
2024/03/05 02:31:29;;;;;;;0.50;0.50;;;;;;;4.31;100.00;98651.34;5025394;28;20032;-75
2024/03/05 02:33:55;;;;;;;0.40;0.40;;;;;;;4.35;100.00;98635.81;5041830;28;20044;-75
2024/03/05 02:36:23;;;;;;;0.40;0.40;;;;;;;4.36;100.00;98638.25;5041911;28;20055;-75
2024/03/05 02:38:50;;;;;;;0.50;0.50;;;;;;;4.38;100.00;98649.56;5042764;28;20093;-75
2024/03/05 02:41:16;;;;;;;0.50;0.50;;;;;;;4.39;100.00;98672.50;5058262;28;20115;-75
2024/03/05 02:43:41;;;;;;;0.50;0.50;;;;;;;4.40;100.00;98654.69;5041616;28;20137;-75
2024/03/05 02:46:07;;;;;;;0.50;0.50;;;;;;;4.43;100.00;98650.84;5041514;28;20033;-75
2024/03/05 02:48:32;;;;;;;0.50;0.50;;;;;;;4.39;100.00;98656.53;5041522;28;20039;-75
2024/03/05 02:50:58;;;;;;;0.43;0.43;;;;;;;4.44;100.00;98663.94;5041442;28;20362;-75
2024/03/05 02:53:24;;;;;;;0.40;0.40;;;;;;;4.49;100.00;98672.19;5042353;28;20407;-75
2024/03/05 02:55:50;;;;;;;0.60;0.60;;;;;;;4.56;100.00;98653.66;5041207;28;20085;-75
2024/03/05 02:58:16;;;;;;;0.50;0.50;;;;;;;4.63;100.00;98673.16;5041141;28;20123;-75
2024/03/05 03:00:42;;;;;;;0.50;0.50;;;;;;;4.67;100.00;98678.94;5057957;28;20055;-75
2024/03/05 03:03:08;;;;;;;0.40;0.40;;;;;;;4.69;100.00;98695.56;5041763;28;20048;-75
2024/03/05 03:05:34;;;;;;;0.50;0.50;;;;;;;4.75;100.00;98666.31;5058436;28;20533;-75
2024/03/05 03:07:59;;;;;;;0.50;0.50;;;;;;;4.81;100.00;98713.47;5058112;28;20028;-75
2024/03/05 03:10:25;;;;;;;0.40;0.40;;;;;;;4.91;100.00;98721.16;5040840;28;20378;-75
2024/03/05 03:12:51;;;;;;;0.40;0.40;;;;;;;4.93;100.00;98734.31;5057689;28;20363;-75
2024/03/05 03:15:21;;;;;;;2.85;2.75;;;;;;;4.89;100.00;98733.03;5040825;28;20020;-75
2024/03/05 03:18:04;;;;;;;0.50;0.50;;;;;;;4.86;100.00;98752.88;5072508;28;20059;-75
2024/03/05 03:20:32;;;;;;;0.50;0.50;;;;;;;4.78;100.00;98752.97;5057582;28;20049;-74
2024/03/05 03:22:58;;;;;;;0.40;0.40;;;;;;;4.69;100.00;98746.94;5058218;28;20036;-75
2024/03/05 03:25:24;;;;;;;0.40;0.40;;;;;;;4.67;100.00;98772.94;5040813;28;20536;-75
2024/03/05 03:27:49;;;;;;;0.50;0.50;;;;;;;4.63;100.00;98764.50;5041330;28;20362;-75
2024/03/05 03:30:19;;;;;;;0.50;0.50;;;;;;;4.60;100.00;98799.47;5040214;28;20374;-75
2024/03/05 03:32:46;;;;;;;0.40;0.40;;;;;;;4.62;100.00;98796.63;5057954;28;20048;-75
2024/03/05 03:35:13;;;;;;;0.50;0.50;;;;;;;4.62;100.00;98799.28;5057001;28;20040;-75
2024/03/05 03:37:41;;;;;;;0.50;0.50;;;;;;;4.61;100.00;98818.94;5057413;28;20044;-75
2024/03/05 03:40:17;;;;;;;0.60;0.60;;;;;;;4.64;100.00;98807.91;5024288;28;20060;-75
2024/03/05 03:42:47;;;;;;;0.40;0.40;;;;;;;4.69;100.00;98831.31;5073719;28;20075;-75
2024/03/05 03:45:13;;;;;;;0.40;0.40;;;;;;;4.70;100.00;98833.78;5040985;28;20036;-75
2024/03/05 03:47:39;;;;;;;0.40;0.40;;;;;;;4.72;100.00;98833.59;5040643;28;20057;-75
2024/03/05 03:50:07;;;;;;;0.40;0.40;;;;;;;4.70;100.00;98862.25;5023993;28;20078;-75
2024/03/05 03:52:33;;;;;;;0.50;0.50;;;;;;;4.73;100.00;98859.22;5056907;28;20032;-75
2024/03/05 03:54:59;;;;;;;0.40;0.40;;;;;;;4.74;100.00;98868.88;5040109;28;20145;-75
2024/03/05 03:57:26;;;;;;;0.40;0.40;;;;;;;4.78;100.00;98896.75;5040197;28;20466;-75
2024/03/05 03:59:53;;;;;;;0.50;0.50;;;;;;;4.78;100.00;98878.13;5072967;28;20024;-75
2024/03/05 04:02:21;;;;;;;0.50;0.50;;;;;;;4.76;100.00;98907.63;5073204;28;20024;-75
2024/03/05 04:04:47;;;;;;;0.50;0.50;;;;;;;4.80;100.00;98922.19;5056655;28;20040;-75
2024/03/05 04:07:13;;;;;;;0.40;0.40;;;;;;;4.82;100.00;98933.50;5039896;28;20096;-75
2024/03/05 04:09:39;;;;;;;0.40;0.40;;;;;;;4.83;100.00;98919.16;5056401;28;20174;-75
2024/03/05 04:12:07;;;;;;;0.50;0.50;;;;;;;4.84;100.00;98936.81;5056553;28;20035;-75
2024/03/05 04:14:32;;;;;;;0.50;0.50;;;;;;;4.81;100.00;98955.78;5056166;28;20062;-75
2024/03/05 04:16:58;;;;;;;0.40;0.40;;;;;;;4.84;100.00;98973.25;5039849;28;20105;-75
2024/03/05 04:19:23;;;;;;;0.50;0.50;;;;;;;4.77;100.00;98956.34;5039729;28;20028;-75
2024/03/05 04:21:50;;;;;;;0.40;0.40;;;;;;;4.87;100.00;98988.88;5039635;28;20047;-75
2024/03/05 04:24:17;;;;;;;0.40;0.40;;;;;;;4.92;100.00;98993.63;5056446;28;20024;-75
2024/03/05 04:26:47;;;;;;;0.50;0.50;;;;;;;4.91;100.00;99007.97;5039639;28;20036;-75
2024/03/05 04:29:19;;;;;;;0.40;0.40;;;;;;;4.95;100.00;99019.91;5056939;28;20036;-75
2024/03/05 04:32:04;;;;;;;0.50;0.50;;;;;;;4.96;100.00;99025.06;5072550;28;20115;-75
2024/03/05 04:34:35;;;;;;;0.50;0.50;;;;;;;4.94;100.00;99024.41;5058745;28;20033;-75
2024/03/05 04:37:01;;;;;;;0.47;0.47;;;;;;;4.93;100.00;99054.72;5072485;28;20037;-75
2024/03/05 04:39:27;;;;;;;0.40;0.40;;;;;;;4.95;100.00;99068.69;5055674;28;20482;-75
2024/03/05 04:41:53;;;;;;;0.47;0.47;;;;;;;4.95;100.00;99084.66;5071385;28;20031;-75
2024/03/05 04:44:19;;;;;;;0.40;0.40;;;;;;;4.99;100.00;99085.13;5056053;28;20111;-75
2024/03/05 04:46:45;;;;;;;0.50;0.50;;;;;;;5.01;100.00;99091.09;5039199;28;20382;-75
2024/03/05 04:49:10;;;;;;;0.43;0.43;;;;;;;4.99;100.00;99115.25;5039364;28;20050;-75
2024/03/05 04:51:37;;;;;;;0.40;0.40;;;;;;;5.01;100.00;99125.75;5039374;28;20040;-75
2024/03/05 04:54:02;;;;;;;0.50;0.50;;;;;;;4.97;100.00;99143.06;5056458;28;20051;-75
2024/03/05 04:56:28;;;;;;;0.40;0.40;;;;;;;4.95;100.00;99150.41;5038918;28;20451;-75
2024/03/05 04:58:54;;;;;;;0.50;0.50;;;;;;;4.96;100.00;99155.56;5039304;28;20036;-75
2024/03/05 05:01:19;;;;;;;0.50;0.50;;;;;;;4.97;100.00;99170.53;5055506;28;20032;-75
2024/03/05 05:03:45;;;;;;;0.43;0.43;;;;;;;4.97;100.00;99183.84;5039231;28;20035;-75
2024/03/05 05:06:11;;;;;;;0.50;0.50;;;;;;;4.98;100.00;99200.69;5072456;28;20024;-75
2024/03/05 05:08:37;;;;;;;0.40;0.40;;;;;;;4.97;100.00;99221.13;5038868;28;20059;-75
2024/03/05 05:11:03;;;;;;;0.50;0.50;;;;;;;4.92;100.00;99222.69;5038886;28;20028;-75
2024/03/05 05:13:28;;;;;;;0.40;0.40;;;;;;;4.96;100.00;99237.31;5055549;28;20029;-75
2024/03/05 05:15:58;;;;;;;0.50;0.50;;;;;;;4.95;100.00;99251.63;5055099;28;20480;-75
2024/03/05 05:18:24;;;;;;;0.40;0.40;;;;;;;4.93;100.00;99243.81;5056327;28;20025;-75
2024/03/05 05:20:51;;;;;;;0.45;0.45;;;;;;;4.90;100.00;99270.81;5038973;28;20043;-75
2024/03/05 05:23:17;;;;;;;0.40;0.40;;;;;;;4.90;100.00;99283.31;5072237;28;20036;-75
2024/03/05 05:25:43;;;;;;;0.40;0.40;;;;;;;4.87;100.00;99279.16;5055436;28;20078;-75
2024/03/05 05:28:09;;;;;;;0.40;0.40;;;;;;;4.85;100.00;99313.94;5072137;28;20113;-75
2024/03/05 05:30:34;;;;;;;0.40;0.40;;;;;;;4.88;100.00;99317.28;5055192;28;20024;-75
2024/03/05 05:33:00;;;;;;;0.50;0.50;;;;;;;4.90;100.00;99318.75;5055163;28;20024;-75
2024/03/05 05:35:26;;;;;;;0.40;0.40;;;;;;;4.94;100.00;99330.72;5038692;28;20382;-75
2024/03/05 05:37:52;;;;;;;0.40;0.40;;;;;;;4.95;100.00;99348.38;5039012;28;20047;-75
2024/03/05 05:40:18;;;;;;;0.40;0.40;;;;;;;4.96;100.00;99374.00;5038987;28;20450;-75
2024/03/05 05:42:48;;;;;;;0.40;0.40;;;;;;;4.96;100.00;99379.31;5038729;28;20020;-75
2024/03/05 05:45:14;;;;;;;0.40;0.40;;;;;;;4.97;100.00;99367.66;5071614;28;20477;-75
2024/03/05 05:48:02;;;;;;;0.50;0.50;;;;;;;4.96;100.00;99389.16;5038881;28;20123;-75
2024/03/05 05:50:28;;;;;;;0.40;0.40;;;;;;;4.97;100.00;99406.78;5071543;28;20462;-75
2024/03/05 05:52:55;;;;;;;0.40;0.40;;;;;;;4.96;100.00;99415.78;5057169;28;20032;-75
2024/03/05 05:55:27;;;;;;;0.40;0.40;;;;;;;4.94;100.00;99421.28;5042512;28;20141;-75
2024/03/05 05:57:53;;;;;;;0.50;0.50;;;;;;;4.91;100.00;99423.47;5059488;28;20036;-75
2024/03/05 06:00:23;;;;;;;0.60;0.60;;;;;;;4.88;100.00;99461.09;5059588;28;20102;-75
2024/03/05 06:02:55;;;;;;;0.40;0.40;;;;;;;4.85;100.00;99465.75;5059025;28;20032;-75
2024/03/05 06:05:24;;;;;;;0.50;0.50;;;;;;;4.88;100.00;99487.72;5075065;28;20028;-75
2024/03/05 06:07:51;;;;;;;0.50;0.50;;;;;;;4.87;100.00;99492.22;5059005;28;20016;-75
2024/03/05 06:10:19;;;;;;;0.40;0.40;;;;;;;4.88;100.00;99499.22;5041867;28;20123;-75
2024/03/05 06:12:45;;;;;;;0.50;0.50;;;;;;;4.90;100.00;99517.69;5075090;28;20043;-75
2024/03/05 06:15:12;;;;;;;0.40;0.40;;;;;;;4.92;100.00;99511.19;5042040;28;20447;-75
2024/03/05 06:17:38;;;;;;;0.60;0.60;;;;;;;4.93;100.00;99528.84;5058903;28;20512;-75
2024/03/05 06:20:14;;;;;;;0.40;0.40;;;;;;;4.95;100.00;99532.16;5058838;28;20028;-75
2024/03/05 06:22:44;;;;;;;0.40;0.40;;;;;;;4.97;100.00;99550.63;5042026;28;20055;-75
2024/03/05 06:25:13;;;;;;;0.40;0.40;;;;;;;4.96;100.00;99527.66;5042044;28;20067;-75
2024/03/05 06:27:39;;;;;;;0.40;0.40;;;;;;;4.95;100.00;99555.28;5058537;28;20048;-75
2024/03/05 06:30:21;;;;;;;0.40;0.40;;;;;;;4.90;100.00;99570.97;5041733;28;20028;-75
2024/03/05 06:32:51;;;;;;;0.50;0.50;;;;;;;4.89;100.00;99580.75;5042794;28;20030;-75
2024/03/05 06:35:29;;;;;;;0.50;0.50;;;;;;;4.90;100.00;99602.94;5025837;28;20036;-75
2024/03/05 06:37:57;;;;;;;0.50;0.50;;;;;;;4.90;100.00;99616.25;5071831;28;20127;-75
2024/03/05 06:40:23;;;;;;;0.40;0.40;;;;;;;4.91;100.00;99625.88;5042155;28;20025;-75
2024/03/05 06:42:52;;;;;;;0.40;0.40;;;;;;;4.92;100.00;99641.72;5058294;28;20035;-75
2024/03/05 06:45:30;;;;;;;0.50;0.50;;;;;;;4.93;100.00;99645.22;5074733;28;20021;-75
2024/03/05 06:47:56;;;;;;;0.40;0.40;;;;;;;4.95;100.00;99640.53;5042368;28;20047;-75
2024/03/05 06:50:36;;;;;;;0.47;0.47;;;;;;;4.97;100.00;99657.19;5041300;28;20413;-75
2024/03/05 06:58:34;;;;;;;0.40;0.40;;;;;;;5.00;100.00;99676.34;5074571;28;20024;-75
2024/03/05 07:01:02;;;;;;;0.50;0.50;;;;;;;5.02;100.00;99681.50;5057870;28;20039;-75
2024/03/05 07:03:28;;;;;;;0.40;0.40;;;;;;;5.09;100.00;99695.00;5057668;28;20025;-75
2024/03/05 07:06:15;;;;;;;0.40;0.40;;;;;;;5.17;100.00;99716.31;5060740;28;20046;-75
2024/03/05 07:08:43;;;;;;;0.50;0.50;;;;;;;5.16;100.00;99735.94;5074567;28;20054;-75
2024/03/05 07:11:11;;;;;;;0.40;0.40;;;;;;;5.15;100.00;99740.44;5057218;28;20056;-75
2024/03/05 07:13:37;;;;;;;0.40;0.40;;;;;;;5.15;100.00;99748.44;5057705;28;20051;-75
2024/03/05 07:16:04;;;;;;;0.47;0.47;;;;;;;5.14;100.00;99751.28;5057016;28;20024;-75
2024/03/05 07:18:30;;;;;;;0.40;0.40;;;;;;;5.17;100.00;99770.44;5057911;28;20346;-75
2024/03/05 07:20:56;;;;;;;0.50;0.50;;;;;;;5.17;100.00;99780.25;5040953;28;20123;-75
2024/03/05 07:23:21;;;;;;;0.50;0.50;;;;;;;5.21;100.00;99792.25;5040722;28;20032;-75
2024/03/05 07:25:47;;;;;;;0.40;0.40;;;;;;;5.24;100.00;99799.94;5040829;28;20033;-75
2024/03/05 07:28:17;;;;;;;0.50;0.50;;;;;;;5.29;100.00;99806.44;5057352;28;20032;-75
2024/03/05 07:30:42;;;;;;;0.45;0.45;;;;;;;5.35;100.00;99814.78;5040704;28;20039;-75
2024/03/05 07:33:09;;;;;;;0.50;0.50;;;;;;;5.40;100.00;99818.59;5056752;28;20025;-75
2024/03/05 07:35:37;;;;;;;0.40;0.40;;;;;;;5.48;100.00;99844.44;5040678;28;20055;-75
2024/03/05 07:38:04;;;;;;;0.50;0.50;;;;;;;5.52;100.00;99843.09;5057332;28;20032;-75
2024/03/05 07:40:29;;;;;;;0.40;0.40;;;;;;;5.57;100.00;99850.59;5040354;28;20035;-75
2024/03/05 07:42:55;;;;;;;0.50;0.50;;;;;;;5.66;100.00;99861.13;5040121;28;20028;-75
2024/03/05 07:45:22;;;;;;;0.50;0.50;;;;;;;5.71;100.00;99877.44;5040377;28;20378;-75
2024/03/05 07:47:49;;;;;;;0.43;0.43;;;;;;;5.76;100.00;99882.28;5057298;28;20112;-75
2024/03/05 07:50:15;;;;;;;0.40;0.40;;;;;;;5.76;100.00;99887.63;5056908;28;20082;-75
2024/03/05 07:52:42;;;;;;;0.40;0.40;;;;;;;5.81;100.00;99900.47;5040261;28;20028;-74
2024/03/05 07:55:09;;;;;;;0.50;0.50;;;;;;;5.88;100.00;99918.31;5056781;28;20043;-75
2024/03/05 07:57:37;;;;;;;0.40;0.40;;;;;;;5.93;100.00;99917.81;5056836;28;20056;-75
2024/03/05 08:00:08;;;;;;;0.50;0.50;;;;;;;6.00;100.00;99923.34;5056659;28;20024;-75
2024/03/05 08:02:47;;;;;;;0.40;0.40;;;;;;;6.02;100.00;99935.53;5073281;28;20038;-75
2024/03/05 08:05:23;;;;;;;0.40;0.40;;;;;;;6.05;100.00;99940.53;5056560;28;20433;-75
2024/03/05 08:07:50;;;;;;;0.40;0.40;;;;;;;6.03;100.00;99950.53;5073184;28;20023;-75
2024/03/05 08:10:16;;;;;;;0.50;0.50;;;;;;;5.99;100.00;99959.88;5072660;28;20111;-75
2024/03/05 08:12:45;;;;;;;0.50;0.50;;;;;;;6.05;100.00;99955.69;5072870;28;20034;-75
2024/03/05 08:15:13;;;;;;;0.50;0.50;;;;;;;6.12;100.00;99972.72;5039684;28;20044;-75
2024/03/05 08:17:40;;;;;;;0.40;0.40;;;;;;;6.17;100.00;99975.75;5039763;28;20082;-75
2024/03/05 08:20:07;;;;;;;0.40;0.40;;;;;;;6.24;100.00;99981.22;5056255;28;20043;-75
2024/03/05 08:22:36;;;;;;;0.50;0.50;;;;;;;6.27;100.00;99987.09;5056187;28;20048;-75
2024/03/05 08:25:09;;;;;;;0.50;0.50;;;;;;;6.26;100.00;99997.91;5056540;28;20032;-75
2024/03/05 08:27:38;;;;;;;0.50;0.50;;;;;;;6.26;100.00;100008.59;5057280;28;20033;-75
2024/03/05 08:30:08;;;;;;;0.50;0.50;;;;;;;6.29;100.00;100011.75;5040694;28;20043;-76
2024/03/05 08:32:37;;;;;;;0.50;0.50;;;;;;;6.34;100.00;100022.78;5056715;28;20044;-75
2024/03/05 08:35:05;;;;;;;0.40;0.40;;;;;;;6.42;100.00;100027.28;5040099;28;20052;-75
2024/03/05 08:37:31;;;;;;;0.50;0.50;;;;;;;6.53;100.00;100044.81;5072535;28;20021;-75
2024/03/05 08:39:57;;;;;;;0.50;0.50;;;;;;;6.64;100.00;100047.13;5039224;28;20037;-75
2024/03/05 08:42:22;;;;;;;0.50;0.50;;;;;;;6.72;100.00;100049.84;5057098;28;20032;-75
2024/03/05 08:44:48;;;;;;;0.50;0.50;;;;;;;6.95;100.00;100063.31;5042435;28;20454;-75
2024/03/05 08:47:14;;;;;;;0.50;0.50;;;;;;;7.12;100.00;100068.63;5039636;28;20370;-75
2024/03/05 08:49:39;;;;;;;0.40;0.40;;;;;;;7.25;100.00;100072.47;5039576;28;20047;-75
2024/03/05 08:52:05;;;;;;;0.50;0.50;;;;;;;7.21;100.00;100081.00;5039028;28;20055;-75
2024/03/05 08:54:31;;;;;;;0.45;0.45;;;;;;;7.28;100.00;100084.66;5022957;28;20132;-75
2024/03/05 08:56:58;;;;;;;0.50;0.50;;;;;;;7.41;100.00;100092.97;5072219;28;20107;-75
2024/03/05 08:59:25;;;;;;;0.40;0.40;;;;;;;7.44;100.00;100095.31;5072279;28;20112;-75
2024/03/05 09:01:54;;;;;;;0.40;0.40;;;;;;;7.77;100.00;100100.53;5023070;28;20477;-75
2024/03/05 09:04:20;;;;;;;0.47;0.47;;;;;;;7.74;100.00;100108.91;5055798;28;20368;-75
2024/03/05 09:06:47;;;;;;;0.50;0.50;;;;;;;7.64;100.00;100121.66;5039081;28;20364;-75
2024/03/05 09:09:15;;;;;;;0.60;0.60;;;;;;;7.46;100.00;100133.44;5056028;28;20036;-75
2024/03/05 09:11:41;;;;;;;0.57;0.57;;;;;;;7.29;100.00;100139.78;5039347;28;20081;-75
2024/03/05 09:14:06;;;;;;;0.50;0.50;;;;;;;7.61;100.00;100141.56;5039220;28;20133;-75
2024/03/05 09:16:33;;;;;;;0.50;0.50;;;;;;;8.05;100.00;100154.47;5038808;28;20030;-75
2024/03/05 09:18:59;;;;;;;0.50;0.50;;;;;;;8.67;100.00;100169.72;5055636;28;20032;-76
2024/03/05 09:21:25;;;;;;;0.50;0.50;;;;;;;8.36;100.00;100167.88;5039547;28;20166;-76
2024/03/05 09:23:50;;;;;;;0.50;0.50;;;;;;;8.05;100.00;100180.41;5038949;28;20362;-76
2024/03/05 09:26:16;;;;;;;0.52;0.52;;;;;;;8.75;100.00;100183.03;5039112;28;20453;-75
2024/03/05 09:28:43;;;;;;;0.50;0.50;;;;;;;9.33;100.00;100202.22;5074763;28;20031;-75
2024/03/05 09:31:08;;;;;;;0.60;0.60;;;;;;;9.72;100.00;100194.97;5059213;28;20021;-75
2024/03/05 09:33:34;;;;;;;0.60;0.60;;;;;;;10.34;100.00;100210.72;5042937;28;20021;-75
2024/03/05 09:36:04;;;;;;;0.50;0.50;;;;;;;10.59;100.00;100213.09;5042386;28;20032;-75
2024/03/05 09:38:31;;;;;;;0.50;0.50;;;;;;;11.06;100.00;100214.41;5075775;28;20056;-76
2024/03/05 09:40:57;;;;;;;0.50;0.50;;;;;;;11.56;100.00;100226.00;5059000;28;20086;-76
2024/03/05 09:43:25;;;;;;;0.50;0.50;;;;;;;11.90;100.00;100236.03;5043299;28;20359;-75
2024/03/05 09:45:51;;;;;;;0.50;0.50;;;;;;;12.08;100.00;100244.44;5059337;28;20486;-76
2024/03/05 09:48:18;;;;;;;0.50;0.50;;;;;;;12.36;100.00;100242.72;5075722;28;20123;-76
2024/03/05 09:50:46;;;;;;;0.60;0.60;;;;;;;12.60;100.00;100244.91;5059349;28;20036;-76
2024/03/05 09:53:14;;;;;;;0.60;0.60;;;;;;;12.85;100.00;100247.06;5059218;28;20111;-73
2024/03/05 09:55:40;;;;;;;0.60;0.60;;;;;;;12.86;100.00;100251.41;5042589;28;20026;-76
2024/03/05 09:58:14;;;;;;;0.50;0.50;;;;;;;12.84;100.00;100256.22;5042528;28;20028;-76
2024/03/05 10:00:40;;;;;;;12.48;2.40;;;;;;;13.27;100.00;100264.00;5059472;28;20063;-73
2024/03/05 10:03:08;;;;;;;9.50;2.28;;;;;;;13.39;100.00;100270.47;5042433;28;20068;-75
2024/03/05 10:05:38;;;;;;;9.52;2.00;;;;;;;13.51;100.00;100274.22;5058980;28;20033;-75
2024/03/05 10:08:05;;;;;;;11.55;1.98;;;;;;;12.68;100.00;100278.97;5042277;28;20032;-73
2024/03/05 10:10:32;;;;;;;13.00;2.28;;;;;;;12.02;100.00;100290.22;5042141;28;20032;-75
2024/03/05 10:13:01;;;;;;;10.05;2.63;;;;;;;11.61;100.00;100289.03;5075004;28;20035;-75
2024/03/05 10:15:27;;;;;;;11.35;2.17;;;;;;;11.24;100.00;100287.44;5075212;28;20059;-75
2024/03/05 10:17:54;;;;;;;12.60;3.70;;;;;;;10.73;100.00;100303.63;5059433;28;20102;-75
2024/03/05 10:20:32;;;;;;;8.52;1.70;;;;;;;10.96;100.00;100307.03;5058602;28;20062;-75
2024/03/05 10:23:03;;;;;;;7.03;1.48;;;;;;;10.97;100.00;100324.81;5058201;28;20021;-75
2024/03/05 10:25:30;;;;;;;7.15;1.73;;;;;;;10.34;100.00;100324.41;5026159;28;20454;-75
2024/03/05 10:27:56;;;;;;;11.27;2.20;;;;;;;9.83;100.00;100326.91;5042137;28;20036;-75
2024/03/05 10:30:25;;;;;;;8.05;1.58;;;;;;;9.64;100.00;100332.78;5041807;28;20043;-75
2024/03/05 10:32:56;;;;;;;12.73;2.72;;;;;;;9.36;100.00;100337.84;5075128;28;20024;-75
2024/03/05 10:35:23;;;;;;;10.65;2.05;;;;;;;9.10;100.00;100339.00;5075483;28;20021;-75
2024/03/05 10:37:56;;;;;;;7.20;2.03;;;;;;;9.01;100.00;100354.31;5057831;28;20478;-75
2024/03/05 10:40:22;;;;;;;12.77;2.88;;;;;;;8.92;100.00;100355.38;5056537;28;20073;-74
2024/03/05 10:42:51;;;;;;;14.10;2.28;;;;;;;9.64;100.00;100356.97;5057688;28;20033;-75
2024/03/05 10:45:23;;;;;;;12.95;2.10;;;;;;;10.33;100.00;100367.63;5041563;28;20028;-74
2024/03/05 10:47:50;;;;;;;12.83;2.60;;;;;;;11.12;100.00;100375.91;5042398;28;20055;-75
2024/03/05 10:50:17;;;;;;;8.32;2.58;;;;;;;11.82;100.00;100379.75;5058020;28;20052;-75
2024/03/05 10:52:43;;;;;;;14.25;2.40;;;;;;;12.40;100.00;100373.41;5024975;28;20033;-73
2024/03/05 10:55:11;;;;;;;14.07;2.53;;;;;;;12.86;100.00;100391.72;5024817;28;20063;-72
2024/03/05 11:00:26;;;;;;;12.95;3.95;;;;;;;13.47;100.00;100407.16;5060394;28;20530;-73
2024/03/05 11:02:54;;;;;;;14.55;2.90;;;;;;;13.40;100.00;100418.78;5041649;28;20036;-74
2024/03/05 11:05:20;;;;;;;11.80;3.10;;;;;;;13.45;100.00;100420.06;5024805;28;20064;-74
2024/03/05 11:07:47;;;;;;;13.93;4.43;;;;;;;13.56;100.00;100419.47;5040996;28;20020;-73
2024/03/05 11:10:13;;;;;;;15.63;4.95;;;;;;;13.67;100.00;100428.84;5041199;28;20036;-73
2024/03/05 11:12:40;;;;;;;16.58;3.40;;;;;;;13.79;100.00;100429.91;5040971;28;20020;-73
2024/03/05 11:15:11;;;;;;;8.40;2.25;;;;;;;14.00;97.05;100435.13;5073717;28;20033;-73
2024/03/05 11:17:36;;;;;;;9.70;2.28;;;;;;;13.85;87.33;100431.78;5058266;28;20036;-73
2024/03/05 11:20:03;;;;;;;8.25;2.42;;;;;;;13.91;83.54;100435.53;5056967;28;20025;-73
2024/03/05 11:22:29;;;;;;;6.45;2.00;;;;;;;13.93;72.92;100447.81;5057556;28;20029;-73
2024/03/05 11:24:56;;;;;;;7.72;2.13;;;;;;;13.44;71.91;100459.72;5057504;28;20118;-73
2024/03/05 11:27:24;;;;;;;5.75;1.95;;;;;;;13.64;73.88;100459.78;5057470;28;20043;-73
2024/03/05 11:29:59;;;;;;;6.05;1.40;;;;;;;13.93;69.09;100469.44;5057292;28;20036;-73
2024/03/05 11:32:28;;;;;;;5.90;1.60;;;;;;;14.05;65.85;100469.63;5073820;28;20024;-73
2024/03/05 11:34:54;;;;;;;8.90;2.17;;;;;;;14.30;65.04;100472.59;5057487;28;20024;-74
2024/03/05 11:37:19;;;;;;;9.35;1.95;;;;;;;14.75;63.94;100480.94;5040560;28;20040;-73
2024/03/05 11:39:46;;;;;;;7.90;1.42;;;;;;;14.71;61.03;100491.38;5040691;28;20032;-73